sensor_id;sensor_type;location;lat;lon;timestamp;pressure;altitude;pressure_sealevel;temperature;humidity
12973;BME280;6551;51.056;9.466;2024-02-16T00:02:02;97366.16;;;19.72;53.02
12973;BME280;6551;51.056;9.466;2024-02-16T00:04:29;97367.81;;;19.68;53.31
12973;BME280;6551;51.056;9.466;2024-02-16T00:06:54;97361.34;;;19.64;53.17
12973;BME280;6551;51.056;9.466;2024-02-16T00:09:21;97361.88;;;19.95;52.89
12973;BME280;6551;51.056;9.466;2024-02-16T00:11:48;97360.06;;;19.85;52.78
12973;BME280;6551;51.056;9.466;2024-02-16T00:14:16;97362.06;;;19.46;53.54
12973;BME280;6551;51.056;9.466;2024-02-16T00:16:41;97356.97;;;19.40;53.54
12973;BME280;6551;51.056;9.466;2024-02-16T00:19:07;97362.41;;;19.35;53.60
12973;BME280;6551;51.056;9.466;2024-02-16T00:21:33;97358.59;;;19.41;53.64
12973;BME280;6551;51.056;9.466;2024-02-16T00:24:00;97363.09;;;19.50;53.37
12973;BME280;6551;51.056;9.466;2024-02-16T00:26:28;97358.56;;;19.46;53.48
12973;BME280;6551;51.056;9.466;2024-02-16T00:28:53;97352.88;;;19.47;53.32
12973;BME280;6551;51.056;9.466;2024-02-16T00:31:20;97349.22;;;19.91;53.09
12973;BME280;6551;51.056;9.466;2024-02-16T00:33:47;97336.63;;;19.81;53.21
12973;BME280;6551;51.056;9.466;2024-02-16T00:36:13;97332.13;;;19.38;53.64
12973;BME280;6551;51.056;9.466;2024-02-16T00:38:39;97339.31;;;19.52;53.36
12973;BME280;6551;51.056;9.466;2024-02-16T00:41:05;97335.19;;;19.26;54.10
12973;BME280;6551;51.056;9.466;2024-02-16T00:43:32;97329.66;;;19.75;53.45
12973;BME280;6551;51.056;9.466;2024-02-16T00:45:59;97332.16;;;19.66;53.03
12973;BME280;6551;51.056;9.466;2024-02-16T00:48:25;97318.59;;;19.71;52.95
12973;BME280;6551;51.056;9.466;2024-02-16T00:50:51;97325.50;;;19.82;52.73
12973;BME280;6551;51.056;9.466;2024-02-16T00:53:18;97326.28;;;19.59;53.38
12973;BME280;6551;51.056;9.466;2024-02-16T00:55:44;97318.66;;;19.66;52.97
12973;BME280;6551;51.056;9.466;2024-02-16T00:58:10;97313.38;;;19.80;52.95
12973;BME280;6551;51.056;9.466;2024-02-16T01:00:36;97320.97;;;19.78;52.87
12973;BME280;6551;51.056;9.466;2024-02-16T01:03:02;97309.47;;;19.91;52.58
12973;BME280;6551;51.056;9.466;2024-02-16T01:05:29;97309.41;;;19.72;52.94
12973;BME280;6551;51.056;9.466;2024-02-16T01:07:56;97306.31;;;19.84;52.79
12973;BME280;6551;51.056;9.466;2024-02-16T01:10:21;97310.91;;;19.83;52.94
12973;BME280;6551;51.056;9.466;2024-02-16T01:12:48;97307.00;;;19.95;52.55
12973;BME280;6551;51.056;9.466;2024-02-16T01:15:16;97302.44;;;19.66;53.01
12973;BME280;6551;51.056;9.466;2024-02-16T01:17:42;97303.56;;;19.65;52.80
12973;BME280;6551;51.056;9.466;2024-02-16T01:20:08;97295.91;;;19.72;53.15
12973;BME280;6551;51.056;9.466;2024-02-16T01:22:36;97302.25;;;19.87;52.39
12973;BME280;6551;51.056;9.466;2024-02-16T01:25:02;97311.25;;;19.77;52.62
12973;BME280;6551;51.056;9.466;2024-02-16T01:27:27;97314.13;;;19.85;52.41
12973;BME280;6551;51.056;9.466;2024-02-16T01:29:53;97315.38;;;19.69;52.58
12973;BME280;6551;51.056;9.466;2024-02-16T01:32:19;97314.84;;;19.96;52.21
12973;BME280;6551;51.056;9.466;2024-02-16T01:34:45;97306.38;;;20.03;52.30
12973;BME280;6551;51.056;9.466;2024-02-16T01:37:12;97316.88;;;19.57;52.96
12973;BME280;6551;51.056;9.466;2024-02-16T01:39:38;97310.97;;;19.78;52.95
12973;BME280;6551;51.056;9.466;2024-02-16T01:42:06;97306.19;;;19.94;53.04
12973;BME280;6551;51.056;9.466;2024-02-16T01:44:31;97316.94;;;20.04;52.81
12973;BME280;6551;51.056;9.466;2024-02-16T01:46:58;97308.69;;;20.14;52.39
12973;BME280;6551;51.056;9.466;2024-02-16T01:49:25;97307.06;;;20.13;52.00
12973;BME280;6551;51.056;9.466;2024-02-16T01:51:51;97302.88;;;20.02;52.61
12973;BME280;6551;51.056;9.466;2024-02-16T01:54:18;97304.72;;;20.07;52.17
12973;BME280;6551;51.056;9.466;2024-02-16T01:56:45;97301.16;;;20.11;52.23
12973;BME280;6551;51.056;9.466;2024-02-16T01:59:11;97297.06;;;19.90;52.22
12973;BME280;6551;51.056;9.466;2024-02-16T02:01:37;97300.91;;;19.84;52.54
12973;BME280;6551;51.056;9.466;2024-02-16T02:04:06;97311.34;;;19.67;53.15
12973;BME280;6551;51.056;9.466;2024-02-16T02:06:32;97299.91;;;19.51;53.29
12973;BME280;6551;51.056;9.466;2024-02-16T02:08:59;97308.28;;;19.50;53.42
12973;BME280;6551;51.056;9.466;2024-02-16T02:11:25;97297.97;;;19.23;54.08
12973;BME280;6551;51.056;9.466;2024-02-16T02:13:50;97305.69;;;19.01;54.72
12973;BME280;6551;51.056;9.466;2024-02-16T02:16:17;97310.44;;;19.14;54.92
12973;BME280;6551;51.056;9.466;2024-02-16T02:18:45;97308.66;;;18.99;54.98
12973;BME280;6551;51.056;9.466;2024-02-16T02:21:11;97315.97;;;18.94;55.05
12973;BME280;6551;51.056;9.466;2024-02-16T02:23:39;97310.72;;;18.74;55.49
12973;BME280;6551;51.056;9.466;2024-02-16T02:26:05;97315.03;;;18.75;55.45
12973;BME280;6551;51.056;9.466;2024-02-16T02:28:31;97307.66;;;18.90;55.32
12973;BME280;6551;51.056;9.466;2024-02-16T02:30:57;97303.75;;;19.06;54.33
12973;BME280;6551;51.056;9.466;2024-02-16T02:33:24;97300.25;;;19.06;54.86
12973;BME280;6551;51.056;9.466;2024-02-16T02:35:50;97306.34;;;18.83;54.63
12973;BME280;6551;51.056;9.466;2024-02-16T02:38:18;97306.38;;;19.16;54.41
12973;BME280;6551;51.056;9.466;2024-02-16T02:40:43;97297.00;;;19.09;54.47
12973;BME280;6551;51.056;9.466;2024-02-16T02:43:09;97299.41;;;19.10;54.56
12973;BME280;6551;51.056;9.466;2024-02-16T02:45:35;97299.13;;;19.12;54.46
12973;BME280;6551;51.056;9.466;2024-02-16T02:48:01;97291.63;;;19.04;54.66
12973;BME280;6551;51.056;9.466;2024-02-16T02:50:28;97287.47;;;19.16;54.44
12973;BME280;6551;51.056;9.466;2024-02-16T02:52:53;97292.72;;;19.03;54.76
12973;BME280;6551;51.056;9.466;2024-02-16T02:55:20;97290.13;;;18.88;55.19
12973;BME280;6551;51.056;9.466;2024-02-16T02:57:46;97289.53;;;18.47;55.51
12973;BME280;6551;51.056;9.466;2024-02-16T03:00:13;97292.66;;;18.74;55.32
12973;BME280;6551;51.056;9.466;2024-02-16T03:02:40;97282.31;;;18.86;55.30
12973;BME280;6551;51.056;9.466;2024-02-16T03:05:07;97285.25;;;18.90;55.10
12973;BME280;6551;51.056;9.466;2024-02-16T03:07:34;97280.63;;;18.95;54.83
12973;BME280;6551;51.056;9.466;2024-02-16T03:10:02;97275.13;;;18.77;55.21
12973;BME280;6551;51.056;9.466;2024-02-16T03:12:28;97271.94;;;19.03;54.81
12973;BME280;6551;51.056;9.466;2024-02-16T03:14:55;97273.06;;;18.97;54.83
12973;BME280;6551;51.056;9.466;2024-02-16T03:17:21;97274.75;;;19.22;54.42
12973;BME280;6551;51.056;9.466;2024-02-16T03:19:48;97267.50;;;19.17;54.53
12973;BME280;6551;51.056;9.466;2024-02-16T03:22:14;97265.16;;;19.06;54.68
12973;BME280;6551;51.056;9.466;2024-02-16T03:24:39;97264.75;;;19.22;54.43
12973;BME280;6551;51.056;9.466;2024-02-16T03:27:05;97265.88;;;19.16;54.08
12973;BME280;6551;51.056;9.466;2024-02-16T03:29:32;97267.50;;;19.51;53.67
12973;BME280;6551;51.056;9.466;2024-02-16T03:31:59;97265.38;;;19.48;54.01
12973;BME280;6551;51.056;9.466;2024-02-16T03:34:26;97262.41;;;19.45;53.49
12973;BME280;6551;51.056;9.466;2024-02-16T03:36:52;97266.78;;;19.36;53.90
12973;BME280;6551;51.056;9.466;2024-02-16T03:39:18;97274.75;;;19.22;53.88
12973;BME280;6551;51.056;9.466;2024-02-16T03:41:47;97274.22;;;19.20;53.96
12973;BME280;6551;51.056;9.466;2024-02-16T03:44:15;97271.22;;;19.21;54.40
12973;BME280;6551;51.056;9.466;2024-02-16T03:46:44;97269.06;;;18.90;54.60
12973;BME280;6551;51.056;9.466;2024-02-16T03:49:10;97272.75;;;19.04;54.72
12973;BME280;6551;51.056;9.466;2024-02-16T03:51:37;97268.75;;;18.96;54.50
12973;BME280;6551;51.056;9.466;2024-02-16T03:54:03;97272.47;;;18.66;55.22
12973;BME280;6551;51.056;9.466;2024-02-16T03:56:30;97269.16;;;18.75;55.13
12973;BME280;6551;51.056;9.466;2024-02-16T03:58:56;97264.94;;;18.63;55.25
12973;BME280;6551;51.056;9.466;2024-02-16T04:01:22;97277.50;;;18.78;55.15
12973;BME280;6551;51.056;9.466;2024-02-16T04:03:49;97275.34;;;18.80;55.07
12973;BME280;6551;51.056;9.466;2024-02-16T04:06:15;97275.31;;;18.85;54.73
12973;BME280;6551;51.056;9.466;2024-02-16T04:08:40;97275.75;;;18.97;54.51
12973;BME280;6551;51.056;9.466;2024-02-16T04:11:06;97265.63;;;19.18;54.03
12973;BME280;6551;51.056;9.466;2024-02-16T04:13:32;97272.84;;;19.22;53.68
12973;BME280;6551;51.056;9.466;2024-02-16T04:15:59;97270.66;;;18.96;54.14
12973;BME280;6551;51.056;9.466;2024-02-16T04:18:26;97273.06;;;18.97;54.54
12973;BME280;6551;51.056;9.466;2024-02-16T04:20:52;97278.66;;;19.06;54.22
12973;BME280;6551;51.056;9.466;2024-02-16T04:23:19;97280.00;;;19.42;54.17
12973;BME280;6551;51.056;9.466;2024-02-16T04:25:45;97276.56;;;19.32;53.96
12973;BME280;6551;51.056;9.466;2024-02-16T04:28:11;97276.81;;;19.30;53.75
12973;BME280;6551;51.056;9.466;2024-02-16T04:30:36;97281.03;;;19.12;54.02
12973;BME280;6551;51.056;9.466;2024-02-16T04:33:02;97276.16;;;19.14;54.09
12973;BME280;6551;51.056;9.466;2024-02-16T04:35:30;97273.72;;;19.47;53.43
12973;BME280;6551;51.056;9.466;2024-02-16T04:37:55;97278.25;;;19.22;53.54
12973;BME280;6551;51.056;9.466;2024-02-16T04:40:21;97271.59;;;19.44;53.75
12973;BME280;6551;51.056;9.466;2024-02-16T04:42:48;97272.09;;;19.51;53.97
12973;BME280;6551;51.056;9.466;2024-02-16T04:45:15;97273.94;;;19.21;53.99
12973;BME280;6551;51.056;9.466;2024-02-16T04:47:42;97278.00;;;19.24;53.98
12973;BME280;6551;51.056;9.466;2024-02-16T04:50:08;97278.00;;;19.19;54.15
12973;BME280;6551;51.056;9.466;2024-02-16T04:52:38;97285.34;;;19.13;54.72
12973;BME280;6551;51.056;9.466;2024-02-16T04:55:09;97283.03;;;19.02;54.50
12973;BME280;6551;51.056;9.466;2024-02-16T04:57:35;97281.00;;;19.17;54.53
12973;BME280;6551;51.056;9.466;2024-02-16T05:00:02;97290.13;;;19.21;54.96
12973;BME280;6551;51.056;9.466;2024-02-16T05:02:31;97294.13;;;19.29;54.47
12973;BME280;6551;51.056;9.466;2024-02-16T05:04:56;97287.22;;;19.47;54.83
12973;BME280;6551;51.056;9.466;2024-02-16T05:07:23;97288.53;;;19.54;55.49
12973;BME280;6551;51.056;9.466;2024-02-16T05:09:49;97287.34;;;19.32;55.69
12973;BME280;6551;51.056;9.466;2024-02-16T05:12:16;97282.53;;;19.28;55.66
12973;BME280;6551;51.056;9.466;2024-02-16T05:14:49;97276.81;;;19.01;56.27
12973;BME280;6551;51.056;9.466;2024-02-16T05:17:14;97278.97;;;19.33;55.56
12973;BME280;6551;51.056;9.466;2024-02-16T05:19:40;97277.00;;;19.72;55.04
12973;BME280;6551;51.056;9.466;2024-02-16T05:22:07;97282.69;;;19.95;54.94
12973;BME280;6551;51.056;9.466;2024-02-16T05:24:33;97280.63;;;19.87;54.49
12973;BME280;6551;51.056;9.466;2024-02-16T05:26:59;97275.25;;;20.05;54.16
12973;BME280;6551;51.056;9.466;2024-02-16T05:29:25;97280.00;;;20.18;54.13
12973;BME280;6551;51.056;9.466;2024-02-16T05:31:53;97280.59;;;20.10;53.50
12973;BME280;6551;51.056;9.466;2024-02-16T05:34:19;97280.16;;;20.03;53.33
12973;BME280;6551;51.056;9.466;2024-02-16T05:36:45;97271.31;;;19.98;53.18
12973;BME280;6551;51.056;9.466;2024-02-16T05:39:11;97270.50;;;19.97;53.58
12973;BME280;6551;51.056;9.466;2024-02-16T05:41:54;97265.78;;;20.08;54.05
12973;BME280;6551;51.056;9.466;2024-02-16T05:44:21;97282.84;;;19.56;55.46
12973;BME280;6551;51.056;9.466;2024-02-16T05:46:46;97280.03;;;19.66;55.72
12973;BME280;6551;51.056;9.466;2024-02-16T05:49:15;97285.84;;;19.54;56.46
12973;BME280;6551;51.056;9.466;2024-02-16T05:51:42;97287.63;;;19.64;56.36
12973;BME280;6551;51.056;9.466;2024-02-16T05:54:28;97276.72;;;19.11;57.09
12973;BME280;6551;51.056;9.466;2024-02-16T05:56:53;97288.66;;;19.39;56.46
12973;BME280;6551;51.056;9.466;2024-02-16T05:59:19;97279.69;;;19.44;57.05
12973;BME280;6551;51.056;9.466;2024-02-16T06:01:46;97279.69;;;19.44;56.46
12973;BME280;6551;51.056;9.466;2024-02-16T06:04:12;97276.41;;;19.75;56.42
12973;BME280;6551;51.056;9.466;2024-02-16T06:06:39;97276.03;;;19.87;56.24
12973;BME280;6551;51.056;9.466;2024-02-16T06:09:05;97276.13;;;20.01;56.56
12973;BME280;6551;51.056;9.466;2024-02-16T06:11:33;97268.03;;;20.24;56.04
12973;BME280;6551;51.056;9.466;2024-02-16T06:13:59;97265.06;;;20.26;55.77
12973;BME280;6551;51.056;9.466;2024-02-16T06:16:26;97255.66;;;20.18;56.05
12973;BME280;6551;51.056;9.466;2024-02-16T06:18:53;97257.22;;;20.01;55.38
12973;BME280;6551;51.056;9.466;2024-02-16T06:21:18;97248.53;;;20.04;55.51
12973;BME280;6551;51.056;9.466;2024-02-16T06:23:45;97251.69;;;20.11;55.32
12973;BME280;6551;51.056;9.466;2024-02-16T06:26:10;97259.69;;;19.97;55.29
12973;BME280;6551;51.056;9.466;2024-02-16T06:28:37;97262.78;;;19.85;55.80
12973;BME280;6551;51.056;9.466;2024-02-16T06:31:03;97269.88;;;19.81;56.12
12973;BME280;6551;51.056;9.466;2024-02-16T06:33:31;97272.84;;;19.80;56.42
12973;BME280;6551;51.056;9.466;2024-02-16T06:35:58;97271.59;;;19.72;56.53
12973;BME280;6551;51.056;9.466;2024-02-16T06:38:24;97256.47;;;19.71;56.22
12973;BME280;6551;51.056;9.466;2024-02-16T06:40:51;97271.75;;;19.81;55.88
12973;BME280;6551;51.056;9.466;2024-02-16T06:43:18;97281.75;;;19.80;56.23
12973;BME280;6551;51.056;9.466;2024-02-16T06:45:43;97288.13;;;19.66;56.61
12973;BME280;6551;51.056;9.466;2024-02-16T06:48:09;97303.00;;;19.63;56.56
12973;BME280;6551;51.056;9.466;2024-02-16T06:50:36;97298.53;;;19.54;57.18
12973;BME280;6551;51.056;9.466;2024-02-16T06:53:01;97308.31;;;19.45;57.21
12973;BME280;6551;51.056;9.466;2024-02-16T06:55:28;97303.50;;;19.42;57.52
12973;BME280;6551;51.056;9.466;2024-02-16T06:57:54;97302.69;;;19.36;57.81
12973;BME280;6551;51.056;9.466;2024-02-16T07:00:20;97293.06;;;18.91;57.65
12973;BME280;6551;51.056;9.466;2024-02-16T07:02:47;97300.75;;;19.13;57.37
12973;BME280;6551;51.056;9.466;2024-02-16T07:05:14;97300.75;;;19.13;57.29
12973;BME280;6551;51.056;9.466;2024-02-16T07:07:41;97299.88;;;18.84;57.60
12973;BME280;6551;51.056;9.466;2024-02-16T07:10:07;97302.25;;;18.90;57.23
12973;BME280;6551;51.056;9.466;2024-02-16T07:12:40;97305.38;;;18.68;58.02
12973;BME280;6551;51.056;9.466;2024-02-16T07:15:06;97296.91;;;18.85;57.61
12973;BME280;6551;51.056;9.466;2024-02-16T07:17:32;97306.75;;;19.00;57.16
12973;BME280;6551;51.056;9.466;2024-02-16T07:20:01;97300.84;;;18.98;57.35
12973;BME280;6551;51.056;9.466;2024-02-16T07:22:31;97305.56;;;19.16;56.78
12973;BME280;6551;51.056;9.466;2024-02-16T07:24:59;97308.47;;;18.91;57.29
12973;BME280;6551;51.056;9.466;2024-02-16T07:27:30;97303.41;;;18.79;57.01
12973;BME280;6551;51.056;9.466;2024-02-16T07:29:57;97302.25;;;18.90;57.08
12973;BME280;6551;51.056;9.466;2024-02-16T07:32:22;97301.88;;;18.68;57.29
12973;BME280;6551;51.056;9.466;2024-02-16T07:34:48;97299.16;;;18.68;57.36
12973;BME280;6551;51.056;9.466;2024-02-16T07:37:14;97306.38;;;18.24;58.85
12973;BME280;6551;51.056;9.466;2024-02-16T07:39:41;97318.31;;;18.07;58.92
12973;BME280;6551;51.056;9.466;2024-02-16T07:42:08;97301.13;;;17.78;59.84
12973;BME280;6551;51.056;9.466;2024-02-16T07:44:36;97304.31;;;18.00;59.85
12973;BME280;6551;51.056;9.466;2024-02-16T07:47:02;97310.25;;;17.92;59.52
12973;BME280;6551;51.056;9.466;2024-02-16T07:49:29;97295.03;;;18.22;59.13
12973;BME280;6551;51.056;9.466;2024-02-16T07:51:56;97298.63;;;18.66;57.70
12973;BME280;6551;51.056;9.466;2024-02-16T07:54:23;97301.31;;;18.71;57.00
12973;BME280;6551;51.056;9.466;2024-02-16T07:56:49;97307.72;;;18.80;56.95
12973;BME280;6551;51.056;9.466;2024-02-16T07:59:15;97307.84;;;19.38;56.41
12973;BME280;6551;51.056;9.466;2024-02-16T08:01:42;97313.63;;;19.83;55.39
12973;BME280;6551;51.056;9.466;2024-02-16T08:04:10;97307.03;;;19.37;55.51
12973;BME280;6551;51.056;9.466;2024-02-16T08:06:35;97321.16;;;20.10;54.68
12973;BME280;6551;51.056;9.466;2024-02-16T08:09:02;97318.56;;;20.00;54.23
12973;BME280;6551;51.056;9.466;2024-02-16T08:11:29;97318.31;;;20.25;53.82
12973;BME280;6551;51.056;9.466;2024-02-16T08:13:55;97322.84;;;20.54;53.29
12973;BME280;6551;51.056;9.466;2024-02-16T08:16:27;97325.47;;;20.59;52.39
12973;BME280;6551;51.056;9.466;2024-02-16T08:18:53;97323.56;;;20.40;53.49
12973;BME280;6551;51.056;9.466;2024-02-16T08:21:19;97331.13;;;20.62;53.05
12973;BME280;6551;51.056;9.466;2024-02-16T08:23:45;97331.69;;;20.78;52.34
12973;BME280;6551;51.056;9.466;2024-02-16T08:26:11;97323.81;;;20.63;52.78
12973;BME280;6551;51.056;9.466;2024-02-16T08:28:37;97333.41;;;20.74;52.55
12973;BME280;6551;51.056;9.466;2024-02-16T08:31:05;97339.47;;;20.84;52.57
12973;BME280;6551;51.056;9.466;2024-02-16T08:33:32;97338.91;;;20.45;52.61
12973;BME280;6551;51.056;9.466;2024-02-16T08:35:58;97328.59;;;20.47;52.55
12973;BME280;6551;51.056;9.466;2024-02-16T08:38:23;97327.66;;;20.57;52.86
12973;BME280;6551;51.056;9.466;2024-02-16T08:40:49;97335.56;;;20.53;52.08
12973;BME280;6551;51.056;9.466;2024-02-16T08:43:21;97327.00;;;20.46;52.11
12973;BME280;6551;51.056;9.466;2024-02-16T08:45:47;97333.59;;;20.77;51.90
12973;BME280;6551;51.056;9.466;2024-02-16T08:48:13;97337.53;;;21.41;51.21
12973;BME280;6551;51.056;9.466;2024-02-16T08:50:39;97333.16;;;21.45;50.96
12973;BME280;6551;51.056;9.466;2024-02-16T08:53:04;97337.34;;;21.00;51.09
12973;BME280;6551;51.056;9.466;2024-02-16T08:55:31;97341.09;;;20.43;52.18
12973;BME280;6551;51.056;9.466;2024-02-16T08:57:57;97343.63;;;20.34;52.99
12973;BME280;6551;51.056;9.466;2024-02-16T09:00:23;97346.88;;;20.55;52.50
12973;BME280;6551;51.056;9.466;2024-02-16T09:02:52;97342.63;;;20.02;53.20
12973;BME280;6551;51.056;9.466;2024-02-16T09:05:20;97335.75;;;19.85;53.35
12973;BME280;6551;51.056;9.466;2024-02-16T09:07:46;97349.31;;;19.80;53.71
12973;BME280;6551;51.056;9.466;2024-02-16T09:10:14;97346.09;;;19.78;54.34
12973;BME280;6551;51.056;9.466;2024-02-16T09:12:40;97350.97;;;19.48;54.20
12973;BME280;6551;51.056;9.466;2024-02-16T09:15:06;97345.59;;;19.76;55.19
12973;BME280;6551;51.056;9.466;2024-02-16T09:17:32;97350.44;;;19.74;54.10
12973;BME280;6551;51.056;9.466;2024-02-16T09:19:58;97349.59;;;19.50;54.30
12973;BME280;6551;51.056;9.466;2024-02-16T09:22:25;97354.38;;;19.58;54.65
12973;BME280;6551;51.056;9.466;2024-02-16T09:24:52;97352.78;;;19.57;54.96
12973;BME280;6551;51.056;9.466;2024-02-16T09:27:20;97359.38;;;19.75;54.94
12973;BME280;6551;51.056;9.466;2024-02-16T09:29:47;97365.63;;;19.37;55.22
12973;BME280;6551;51.056;9.466;2024-02-16T09:32:13;97363.00;;;19.60;55.01
12973;BME280;6551;51.056;9.466;2024-02-16T09:34:39;97365.63;;;19.37;54.43
12973;BME280;6551;51.056;9.466;2024-02-16T09:37:05;97366.75;;;19.64;54.79
12973;BME280;6551;51.056;9.466;2024-02-16T09:39:31;97371.03;;;19.70;54.68
12973;BME280;6551;51.056;9.466;2024-02-16T09:41:57;97376.63;;;19.79;54.49
12973;BME280;6551;51.056;9.466;2024-02-16T09:44:24;97368.59;;;19.74;54.80
12973;BME280;6551;51.056;9.466;2024-02-16T09:46:54;97382.34;;;19.72;54.21
12973;BME280;6551;51.056;9.466;2024-02-16T09:49:20;97376.16;;;19.72;54.09
12973;BME280;6551;51.056;9.466;2024-02-16T09:51:46;97378.78;;;19.77;54.19
12973;BME280;6551;51.056;9.466;2024-02-16T09:54:12;97367.97;;;19.77;54.12
12973;BME280;6551;51.056;9.466;2024-02-16T09:56:38;97374.44;;;19.81;53.83
12973;BME280;6551;51.056;9.466;2024-02-16T09:59:04;97368.16;;;20.14;53.52
12973;BME280;6551;51.056;9.466;2024-02-16T10:01:30;97380.91;;;20.61;52.95
12973;BME280;6551;51.056;9.466;2024-02-16T10:04:07;97363.97;;;20.93;52.16
12973;BME280;6551;51.056;9.466;2024-02-16T10:06:48;97356.16;;;21.29;51.48
12973;BME280;6551;51.056;9.466;2024-02-16T10:09:26;97345.47;;;21.19;51.84
12973;BME280;6551;51.056;9.466;2024-02-16T10:11:53;97352.88;;;21.64;50.33
12973;BME280;6551;51.056;9.466;2024-02-16T10:14:19;97357.75;;;21.30;49.97
12973;BME280;6551;51.056;9.466;2024-02-16T10:16:47;97365.03;;;21.16;50.59
12973;BME280;6551;51.056;9.466;2024-02-16T10:19:17;97366.72;;;21.63;50.29
12973;BME280;6551;51.056;9.466;2024-02-16T10:21:43;97356.34;;;21.51;50.30
12973;BME280;6551;51.056;9.466;2024-02-16T10:24:11;97373.16;;;21.67;49.95
12973;BME280;6551;51.056;9.466;2024-02-16T10:26:40;97372.47;;;21.93;49.43
12973;BME280;6551;51.056;9.466;2024-02-16T10:29:10;97369.75;;;21.75;49.92
12973;BME280;6551;51.056;9.466;2024-02-16T10:31:36;97377.50;;;21.81;49.27
12973;BME280;6551;51.056;9.466;2024-02-16T10:34:05;97377.06;;;21.93;49.83
12973;BME280;6551;51.056;9.466;2024-02-16T10:36:36;97374.75;;;22.00;49.13
12973;BME280;6551;51.056;9.466;2024-02-16T10:39:06;97369.94;;;22.10;49.36
12973;BME280;6551;51.056;9.466;2024-02-16T10:41:45;97377.50;;;22.13;49.31
12973;BME280;6551;51.056;9.466;2024-02-16T10:44:12;97373.69;;;22.28;49.98
12973;BME280;6551;51.056;9.466;2024-02-16T10:46:39;97373.00;;;22.63;49.57
12973;BME280;6551;51.056;9.466;2024-02-16T10:49:06;97380.22;;;22.27;48.47
12973;BME280;6551;51.056;9.466;2024-02-16T10:51:49;97385.66;;;22.41;48.72
12973;BME280;6551;51.056;9.466;2024-02-16T10:54:21;97387.16;;;22.33;49.10
12973;BME280;6551;51.056;9.466;2024-02-16T10:56:47;97391.97;;;22.09;48.76
12973;BME280;6551;51.056;9.466;2024-02-16T10:59:16;97393.47;;;22.01;48.85
12973;BME280;6551;51.056;9.466;2024-02-16T11:01:43;97394.47;;;22.05;49.89
12973;BME280;6551;51.056;9.466;2024-02-16T11:04:16;97387.63;;;21.76;49.95
12973;BME280;6551;51.056;9.466;2024-02-16T11:06:57;97390.72;;;21.88;50.04
12973;BME280;6551;51.056;9.466;2024-02-16T11:09:29;97382.81;;;21.73;50.25
12973;BME280;6551;51.056;9.466;2024-02-16T11:12:00;97387.50;;;21.99;50.98
12973;BME280;6551;51.056;9.466;2024-02-16T11:17:11;97387.44;;;21.86;50.17
12973;BME280;6551;51.056;9.466;2024-02-16T11:19:44;97391.47;;;22.07;50.48
12973;BME280;6551;51.056;9.466;2024-02-16T11:22:10;97389.50;;;22.67;49.14
12973;BME280;6551;51.056;9.466;2024-02-16T11:24:43;97384.25;;;22.57;49.04
12973;BME280;6551;51.056;9.466;2024-02-16T11:27:11;97394.00;;;22.58;49.15
12973;BME280;6551;51.056;9.466;2024-02-16T11:29:38;97394.06;;;22.12;49.45
12973;BME280;6551;51.056;9.466;2024-02-16T11:32:05;97392.34;;;22.02;50.09
12973;BME280;6551;51.056;9.466;2024-02-16T11:34:34;97392.06;;;22.18;50.00
12973;BME280;6551;51.056;9.466;2024-02-16T11:37:02;97394.25;;;22.02;51.04
12973;BME280;6551;51.056;9.466;2024-02-16T11:39:28;97396.34;;;21.73;50.49
12973;BME280;6551;51.056;9.466;2024-02-16T11:42:07;97380.69;;;21.37;50.88
12973;BME280;6551;51.056;9.466;2024-02-16T11:44:36;97389.81;;;21.60;51.31
12973;BME280;6551;51.056;9.466;2024-02-16T11:47:09;97388.19;;;21.59;51.65
12973;BME280;6551;51.056;9.466;2024-02-16T11:49:38;97394.81;;;21.34;51.83
12973;BME280;6551;51.056;9.466;2024-02-16T11:52:07;97385.59;;;21.68;51.68
12973;BME280;6551;51.056;9.466;2024-02-16T11:54:34;97385.75;;;21.57;51.91
12973;BME280;6551;51.056;9.466;2024-02-16T11:57:03;97386.38;;;21.54;51.85
12973;BME280;6551;51.056;9.466;2024-02-16T11:59:30;97380.72;;;21.83;51.67
12973;BME280;6551;51.056;9.466;2024-02-16T12:01:58;97378.09;;;21.78;51.89
12973;BME280;6551;51.056;9.466;2024-02-16T12:04:29;97390.22;;;21.99;50.88
12973;BME280;6551;51.056;9.466;2024-02-16T12:07:00;97390.16;;;21.86;52.03
12973;BME280;6551;51.056;9.466;2024-02-16T12:09:27;97386.03;;;21.75;51.54
12973;BME280;6551;51.056;9.466;2024-02-16T12:11:54;97382.47;;;21.61;52.33
12973;BME280;6551;51.056;9.466;2024-02-16T12:14:24;97386.53;;;21.26;52.15
12973;BME280;6551;51.056;9.466;2024-02-16T12:16:56;97386.47;;;21.31;52.47
12973;BME280;6551;51.056;9.466;2024-02-16T12:19:23;97396.81;;;21.10;52.51
12973;BME280;6551;51.056;9.466;2024-02-16T12:21:53;97397.47;;;21.21;52.80
12973;BME280;6551;51.056;9.466;2024-02-16T12:24:19;97388.78;;;21.19;52.90
12973;BME280;6551;51.056;9.466;2024-02-16T12:26:47;97381.72;;;21.23;52.95
12973;BME280;6551;51.056;9.466;2024-02-16T12:29:14;97394.69;;;21.07;52.93
12973;BME280;6551;51.056;9.466;2024-02-16T12:31:42;97387.06;;;21.09;53.47
12973;BME280;6551;51.056;9.466;2024-02-16T12:34:10;97385.72;;;20.88;54.03
12973;BME280;6551;51.056;9.466;2024-02-16T12:36:41;97394.72;;;21.39;53.23
12973;BME280;6551;51.056;9.466;2024-02-16T12:39:07;97398.19;;;20.84;53.62
12973;BME280;6551;51.056;9.466;2024-02-16T12:41:39;97401.72;;;21.03;53.70
12973;BME280;6551;51.056;9.466;2024-02-16T12:44:09;97387.34;;;21.08;53.38
12973;BME280;6551;51.056;9.466;2024-02-16T12:46:36;97403.63;;;21.02;53.88
12973;BME280;6551;51.056;9.466;2024-02-16T12:49:07;97397.22;;;20.75;54.39
12973;BME280;6551;51.056;9.466;2024-02-16T12:51:34;97410.06;;;20.88;54.41
12973;BME280;6551;51.056;9.466;2024-02-16T12:54:01;97410.91;;;20.83;54.40
12973;BME280;6551;51.056;9.466;2024-02-16T12:56:32;97416.88;;;20.62;54.52
12973;BME280;6551;51.056;9.466;2024-02-16T12:58:59;97415.91;;;20.95;54.15
12973;BME280;6551;51.056;9.466;2024-02-16T13:01:27;97414.25;;;20.99;54.48
12973;BME280;6551;51.056;9.466;2024-02-16T13:03:53;97408.94;;;20.70;54.38
12973;BME280;6551;51.056;9.466;2024-02-16T13:06:19;97404.03;;;20.91;55.11
12973;BME280;6551;51.056;9.466;2024-02-16T13:08:46;97405.38;;;20.51;55.15
12973;BME280;6551;51.056;9.466;2024-02-16T13:11:12;97399.50;;;20.44;55.28
12973;BME280;6551;51.056;9.466;2024-02-16T13:13:38;97407.50;;;20.30;55.99